sensor_id;sensor_type;location;lat;lon;timestamp;P1;durP1;ratioP1;P2;durP2;ratioP2
64597;SDS011;51004;54.692;9.332;2023-01-19T00:01:20;15.55;;;11.18;;
64597;SDS011;51004;54.692;9.332;2023-01-19T00:03:46;15.18;;;11.40;;
64597;SDS011;51004;54.692;9.332;2023-01-19T00:06:13;14.40;;;12.45;;
64597;SDS011;51004;54.692;9.332;2023-01-19T00:08:38;12.73;;;9.23;;
64597;SDS011;51004;54.692;9.332;2023-01-19T00:11:04;17.00;;;13.75;;
64597;SDS011;51004;54.692;9.332;2023-01-19T00:13:31;19.38;;;15.32;;
64597;SDS011;51004;54.692;9.332;2023-01-19T00:15:57;17.52;;;13.00;;
64597;SDS011;51004;54.692;9.332;2023-01-19T00:18:23;13.82;;;11.95;;
64597;SDS011;51004;54.692;9.332;2023-01-19T00:20:49;13.25;;;11.07;;
64597;SDS011;51004;54.692;9.332;2023-01-19T00:23:15;12.40;;;8.98;;
64597;SDS011;51004;54.692;9.332;2023-01-19T00:25:41;13.20;;;10.65;;
64597;SDS011;51004;54.692;9.332;2023-01-19T00:28:10;15.18;;;11.35;;
64597;SDS011;51004;54.692;9.332;2023-01-19T00:30:37;11.30;;;9.00;;
64597;SDS011;51004;54.692;9.332;2023-01-19T00:33:03;13.90;;;10.48;;
64597;SDS011;51004;54.692;9.332;2023-01-19T00:35:29;14.05;;;10.75;;
64597;SDS011;51004;54.692;9.332;2023-01-19T00:37:55;15.23;;;12.73;;
64597;SDS011;51004;54.692;9.332;2023-01-19T00:40:21;18.75;;;12.52;;
64597;SDS011;51004;54.692;9.332;2023-01-19T00:42:47;13.82;;;11.25;;
64597;SDS011;51004;54.692;9.332;2023-01-19T00:45:17;13.38;;;11.20;;
64597;SDS011;51004;54.692;9.332;2023-01-19T00:47:43;11.93;;;7.78;;
64597;SDS011;51004;54.692;9.332;2023-01-19T00:50:10;12.05;;;9.18;;
64597;SDS011;51004;54.692;9.332;2023-01-19T00:52:39;9.35;;;7.10;;
64597;SDS011;51004;54.692;9.332;2023-01-19T00:55:06;13.35;;;10.52;;
64597;SDS011;51004;54.692;9.332;2023-01-19T00:57:32;12.38;;;8.93;;
64597;SDS011;51004;54.692;9.332;2023-01-19T00:59:58;10.80;;;9.13;;
64597;SDS011;51004;54.692;9.332;2023-01-19T01:02:24;10.63;;;8.82;;
64597;SDS011;51004;54.692;9.332;2023-01-19T01:04:50;11.25;;;10.07;;
64597;SDS011;51004;54.692;9.332;2023-01-19T01:07:20;12.80;;;10.63;;
64597;SDS011;51004;54.692;9.332;2023-01-19T01:09:46;13.20;;;11.75;;
64597;SDS011;51004;54.692;9.332;2023-01-19T01:12:12;14.18;;;10.57;;
64597;SDS011;51004;54.692;9.332;2023-01-19T01:14:38;8.50;;;7.60;;
64597;SDS011;51004;54.692;9.332;2023-01-19T01:17:04;13.13;;;10.23;;
64597;SDS011;51004;54.692;9.332;2023-01-19T01:19:35;8.52;;;7.65;;
64597;SDS011;51004;54.692;9.332;2023-01-19T01:22:01;12.82;;;9.80;;
64597;SDS011;51004;54.692;9.332;2023-01-19T01:24:27;11.77;;;9.75;;
64597;SDS011;51004;54.692;9.332;2023-01-19T01:26:53;12.80;;;9.88;;
64597;SDS011;51004;54.692;9.332;2023-01-19T01:29:19;14.65;;;11.40;;
64597;SDS011;51004;54.692;9.332;2023-01-19T01:31:44;11.35;;;10.18;;
64597;SDS011;51004;54.692;9.332;2023-01-19T01:34:10;12.52;;;10.43;;
64597;SDS011;51004;54.692;9.332;2023-01-19T01:36:36;15.25;;;11.73;;
64597;SDS011;51004;54.692;9.332;2023-01-19T01:39:02;13.88;;;12.35;;
64597;SDS011;51004;54.692;9.332;2023-01-19T01:41:28;10.80;;;9.63;;
64597;SDS011;51004;54.692;9.332;2023-01-19T01:43:55;16.08;;;10.65;;
64597;SDS011;51004;54.692;9.332;2023-01-19T01:46:26;15.93;;;11.50;;
64597;SDS011;51004;54.692;9.332;2023-01-19T01:49:00;11.30;;;9.45;;
64597;SDS011;51004;54.692;9.332;2023-01-19T01:51:29;13.27;;;11.15;;
64597;SDS011;51004;54.692;9.332;2023-01-19T01:54:09;16.05;;;11.98;;
64597;SDS011;51004;54.692;9.332;2023-01-19T01:56:41;11.73;;;9.60;;
64597;SDS011;51004;54.692;9.332;2023-01-19T01:59:11;16.00;;;12.07;;
64597;SDS011;51004;54.692;9.332;2023-01-19T02:01:41;9.73;;;7.35;;
64597;SDS011;51004;54.692;9.332;2023-01-19T02:04:26;14.50;;;11.07;;
64597;SDS011;51004;54.692;9.332;2023-01-19T02:06:53;11.63;;;8.88;;
64597;SDS011;51004;54.692;9.332;2023-01-19T02:09:37;13.25;;;10.27;;
64597;SDS011;51004;54.692;9.332;2023-01-19T02:12:22;9.55;;;7.57;;
64597;SDS011;51004;54.692;9.332;2023-01-19T02:15:13;8.60;;;7.28;;
64597;SDS011;51004;54.692;9.332;2023-01-19T02:17:39;10.75;;;7.38;;
64597;SDS011;51004;54.692;9.332;2023-01-19T02:20:06;8.73;;;7.53;;
64597;SDS011;51004;54.692;9.332;2023-01-19T02:22:34;8.80;;;5.90;;
64597;SDS011;51004;54.692;9.332;2023-01-19T02:25:05;10.35;;;7.10;;
64597;SDS011;51004;54.692;9.332;2023-01-19T02:27:31;7.00;;;6.13;;
64597;SDS011;51004;54.692;9.332;2023-01-19T02:29:58;7.47;;;6.57;;
64597;SDS011;51004;54.692;9.332;2023-01-19T02:32:27;7.32;;;5.63;;
64597;SDS011;51004;54.692;9.332;2023-01-19T02:34:53;7.18;;;5.95;;
64597;SDS011;51004;54.692;9.332;2023-01-19T02:37:19;9.55;;;7.60;;
64597;SDS011;51004;54.692;9.332;2023-01-19T02:39:46;8.13;;;6.65;;
64597;SDS011;51004;54.692;9.332;2023-01-19T02:42:16;9.80;;;6.75;;
64597;SDS011;51004;54.692;9.332;2023-01-19T02:44:44;7.43;;;6.07;;
64597;SDS011;51004;54.692;9.332;2023-01-19T02:47:11;6.35;;;5.35;;
64597;SDS011;51004;54.692;9.332;2023-01-19T02:49:37;10.13;;;7.85;;
64597;SDS011;51004;54.692;9.332;2023-01-19T02:52:03;8.95;;;6.75;;
64597;SDS011;51004;54.692;9.332;2023-01-19T02:57:13;6.75;;;6.05;;
64597;SDS011;51004;54.692;9.332;2023-01-19T03:00:05;7.97;;;5.90;;
64597;SDS011;51004;54.692;9.332;2023-01-19T03:08:16;5.70;;;4.05;;
64597;SDS011;51004;54.692;9.332;2023-01-19T03:13:26;7.28;;;5.55;;
64597;SDS011;51004;54.692;9.332;2023-01-19T03:15:55;5.95;;;3.75;;
64597;SDS011;51004;54.692;9.332;2023-01-19T03:18:23;8.75;;;6.05;;
64597;SDS011;51004;54.692;9.332;2023-01-19T03:20:50;6.40;;;5.65;;
64597;SDS011;51004;54.692;9.332;2023-01-19T03:23:17;8.02;;;4.95;;
64597;SDS011;51004;54.692;9.332;2023-01-19T03:25:45;5.05;;;3.67;;
64597;SDS011;51004;54.692;9.332;2023-01-19T03:28:14;7.32;;;4.68;;
64597;SDS011;51004;54.692;9.332;2023-01-19T03:30:44;8.43;;;5.95;;
64597;SDS011;51004;54.692;9.332;2023-01-19T03:33:15;9.20;;;6.32;;
64597;SDS011;51004;54.692;9.332;2023-01-19T03:35:43;8.65;;;7.13;;
64597;SDS011;51004;54.692;9.332;2023-01-19T03:38:11;9.43;;;8.05;;
64597;SDS011;51004;54.692;9.332;2023-01-19T03:40:39;9.48;;;7.80;;
64597;SDS011;51004;54.692;9.332;2023-01-19T03:43:06;10.23;;;8.98;;
64597;SDS011;51004;54.692;9.332;2023-01-19T03:45:33;8.80;;;7.35;;
64597;SDS011;51004;54.692;9.332;2023-01-19T03:48:01;8.70;;;7.03;;
64597;SDS011;51004;54.692;9.332;2023-01-19T03:50:29;9.25;;;7.38;;
64597;SDS011;51004;54.692;9.332;2023-01-19T03:52:59;9.48;;;8.48;;
64597;SDS011;51004;54.692;9.332;2023-01-19T03:55:25;9.55;;;8.00;;
64597;SDS011;51004;54.692;9.332;2023-01-19T03:57:51;7.10;;;5.03;;
64597;SDS011;51004;54.692;9.332;2023-01-19T04:00:17;8.30;;;6.93;;
64597;SDS011;51004;54.692;9.332;2023-01-19T04:02:43;10.15;;;7.45;;
64597;SDS011;51004;54.692;9.332;2023-01-19T04:05:09;11.45;;;8.02;;
64597;SDS011;51004;54.692;9.332;2023-01-19T04:07:35;10.48;;;8.85;;
64597;SDS011;51004;54.692;9.332;2023-01-19T04:10:01;8.93;;;6.97;;
64597;SDS011;51004;54.692;9.332;2023-01-19T04:12:27;9.75;;;6.32;;
64597;SDS011;51004;54.692;9.332;2023-01-19T04:14:52;8.02;;;6.80;;
64597;SDS011;51004;54.692;9.332;2023-01-19T04:17:18;10.88;;;8.07;;
64597;SDS011;51004;54.692;9.332;2023-01-19T04:19:44;8.10;;;5.75;;
64597;SDS011;51004;54.692;9.332;2023-01-19T04:22:10;9.40;;;7.07;;
64597;SDS011;51004;54.692;9.332;2023-01-19T04:24:36;5.43;;;4.57;;
64597;SDS011;51004;54.692;9.332;2023-01-19T04:27:02;5.82;;;4.82;;
64597;SDS011;51004;54.692;9.332;2023-01-19T04:29:28;7.13;;;6.30;;
64597;SDS011;51004;54.692;9.332;2023-01-19T04:31:54;7.28;;;4.82;;
64597;SDS011;51004;54.692;9.332;2023-01-19T04:34:20;5.95;;;5.07;;
64597;SDS011;51004;54.692;9.332;2023-01-19T04:36:46;5.82;;;5.10;;
64597;SDS011;51004;54.692;9.332;2023-01-19T04:39:14;5.07;;;3.70;;
64597;SDS011;51004;54.692;9.332;2023-01-19T04:41:40;4.18;;;3.63;;
64597;SDS011;51004;54.692;9.332;2023-01-19T04:44:07;4.78;;;3.72;;
64597;SDS011;51004;54.692;9.332;2023-01-19T04:46:33;3.60;;;3.28;;
64597;SDS011;51004;54.692;9.332;2023-01-19T04:48:59;6.03;;;3.53;;
64597;SDS011;51004;54.692;9.332;2023-01-19T04:51:25;4.15;;;2.80;;
64597;SDS011;51004;54.692;9.332;2023-01-19T04:53:52;4.45;;;3.30;;
64597;SDS011;51004;54.692;9.332;2023-01-19T04:56:18;3.92;;;3.22;;
64597;SDS011;51004;54.692;9.332;2023-01-19T04:58:44;5.13;;;3.65;;
64597;SDS011;51004;54.692;9.332;2023-01-19T05:01:10;3.88;;;2.53;;
64597;SDS011;51004;54.692;9.332;2023-01-19T05:03:36;3.20;;;2.28;;
64597;SDS011;51004;54.692;9.332;2023-01-19T05:06:02;4.20;;;2.60;;
64597;SDS011;51004;54.692;9.332;2023-01-19T05:08:28;4.47;;;2.75;;
64597;SDS011;51004;54.692;9.332;2023-01-19T05:10:54;5.13;;;3.08;;
64597;SDS011;51004;54.692;9.332;2023-01-19T05:13:21;6.13;;;3.13;;
64597;SDS011;51004;54.692;9.332;2023-01-19T05:15:47;10.07;;;5.55;;
64597;SDS011;51004;54.692;9.332;2023-01-19T05:18:16;8.98;;;4.65;;
64597;SDS011;51004;54.692;9.332;2023-01-19T05:20:42;10.45;;;5.38;;
64597;SDS011;51004;54.692;9.332;2023-01-19T05:23:08;10.63;;;6.63;;
64597;SDS011;51004;54.692;9.332;2023-01-19T05:25:34;15.50;;;8.80;;
64597;SDS011;51004;54.692;9.332;2023-01-19T05:28:00;13.10;;;9.50;;
64597;SDS011;51004;54.692;9.332;2023-01-19T05:30:27;13.93;;;8.68;;
64597;SDS011;51004;54.692;9.332;2023-01-19T05:32:53;11.55;;;10.10;;
64597;SDS011;51004;54.692;9.332;2023-01-19T05:35:19;18.27;;;8.10;;
64597;SDS011;51004;54.692;9.332;2023-01-19T05:37:45;17.42;;;10.50;;
64597;SDS011;51004;54.692;9.332;2023-01-19T05:40:11;16.05;;;9.85;;
64597;SDS011;51004;54.692;9.332;2023-01-19T05:42:37;14.20;;;9.52;;
64597;SDS011;51004;54.692;9.332;2023-01-19T05:45:03;16.77;;;10.40;;
64597;SDS011;51004;54.692;9.332;2023-01-19T05:47:29;16.63;;;10.82;;
64597;SDS011;51004;54.692;9.332;2023-01-19T05:49:56;14.85;;;10.30;;
64597;SDS011;51004;54.692;9.332;2023-01-19T05:52:22;15.20;;;10.75;;
64597;SDS011;51004;54.692;9.332;2023-01-19T05:54:49;13.77;;;10.40;;
64597;SDS011;51004;54.692;9.332;2023-01-19T05:57:15;16.67;;;11.18;;
64597;SDS011;51004;54.692;9.332;2023-01-19T05:59:41;12.45;;;9.57;;
64597;SDS011;51004;54.692;9.332;2023-01-19T06:02:07;16.40;;;9.85;;
64597;SDS011;51004;54.692;9.332;2023-01-19T06:04:33;16.30;;;11.02;;
64597;SDS011;51004;54.692;9.332;2023-01-19T06:06:59;11.35;;;10.10;;
64597;SDS011;51004;54.692;9.332;2023-01-19T06:09:26;11.73;;;9.13;;
64597;SDS011;51004;54.692;9.332;2023-01-19T06:11:52;17.77;;;10.60;;
64597;SDS011;51004;54.692;9.332;2023-01-19T06:14:20;17.60;;;10.88;;
64597;SDS011;51004;54.692;9.332;2023-01-19T06:16:46;15.30;;;8.98;;
64597;SDS011;51004;54.692;9.332;2023-01-19T06:19:12;15.93;;;10.48;;
64597;SDS011;51004;54.692;9.332;2023-01-19T06:21:38;14.55;;;10.68;;
64597;SDS011;51004;54.692;9.332;2023-01-19T06:24:04;13.65;;;10.30;;
64597;SDS011;51004;54.692;9.332;2023-01-19T06:26:30;11.48;;;9.82;;
64597;SDS011;51004;54.692;9.332;2023-01-19T06:28:56;19.20;;;10.85;;
64597;SDS011;51004;54.692;9.332;2023-01-19T06:31:22;17.23;;;10.68;;
64597;SDS011;51004;54.692;9.332;2023-01-19T06:33:48;15.35;;;10.20;;
64597;SDS011;51004;54.692;9.332;2023-01-19T06:36:14;16.50;;;12.88;;
64597;SDS011;51004;54.692;9.332;2023-01-19T06:38:40;15.68;;;11.68;;
64597;SDS011;51004;54.692;9.332;2023-01-19T06:41:06;15.82;;;11.68;;
64597;SDS011;51004;54.692;9.332;2023-01-19T06:43:32;11.68;;;10.05;;
64597;SDS011;51004;54.692;9.332;2023-01-19T06:45:58;13.52;;;11.07;;
64597;SDS011;51004;54.692;9.332;2023-01-19T06:48:24;16.50;;;11.30;;
64597;SDS011;51004;54.692;9.332;2023-01-19T06:50:50;18.73;;;13.63;;
64597;SDS011;51004;54.692;9.332;2023-01-19T06:53:16;13.40;;;10.40;;
64597;SDS011;51004;54.692;9.332;2023-01-19T06:55:44;13.52;;;11.63;;
64597;SDS011;51004;54.692;9.332;2023-01-19T06:58:10;12.77;;;9.68;;
64597;SDS011;51004;54.692;9.332;2023-01-19T07:00:36;12.15;;;10.10;;
64597;SDS011;51004;54.692;9.332;2023-01-19T07:03:05;13.80;;;10.82;;
64597;SDS011;51004;54.692;9.332;2023-01-19T07:05:32;17.30;;;11.07;;
64597;SDS011;51004;54.692;9.332;2023-01-19T07:07:58;17.70;;;10.52;;
64597;SDS011;51004;54.692;9.332;2023-01-19T07:10:24;13.18;;;10.95;;
64597;SDS011;51004;54.692;9.332;2023-01-19T07:12:50;14.90;;;10.43;;
64597;SDS011;51004;54.692;9.332;2023-01-19T07:15:17;11.52;;;9.32;;
64597;SDS011;51004;54.692;9.332;2023-01-19T07:17:44;13.10;;;10.18;;
64597;SDS011;51004;54.692;9.332;2023-01-19T07:20:10;15.90;;;10.50;;
64597;SDS011;51004;54.692;9.332;2023-01-19T07:22:40;14.60;;;10.98;;
64597;SDS011;51004;54.692;9.332;2023-01-19T07:25:07;11.77;;;9.27;;
64597;SDS011;51004;54.692;9.332;2023-01-19T07:27:33;11.30;;;9.10;;
64597;SDS011;51004;54.692;9.332;2023-01-19T07:29:59;14.10;;;9.85;;
64597;SDS011;51004;54.692;9.332;2023-01-19T07:32:26;16.02;;;9.93;;
64597;SDS011;51004;54.692;9.332;2023-01-19T07:34:52;10.00;;;8.82;;
64597;SDS011;51004;54.692;9.332;2023-01-19T07:37:18;10.32;;;8.65;;
64597;SDS011;51004;54.692;9.332;2023-01-19T07:39:44;12.13;;;9.07;;
64597;SDS011;51004;54.692;9.332;2023-01-19T07:42:10;17.60;;;9.80;;
64597;SDS011;51004;54.692;9.332;2023-01-19T07:44:36;16.85;;;10.05;;
64597;SDS011;51004;54.692;9.332;2023-01-19T07:47:02;11.48;;;9.65;;
64597;SDS011;51004;54.692;9.332;2023-01-19T07:49:31;13.10;;;8.57;;
64597;SDS011;51004;54.692;9.332;2023-01-19T07:51:57;16.40;;;9.80;;
64597;SDS011;51004;54.692;9.332;2023-01-19T07:54:23;13.60;;;9.55;;
64597;SDS011;51004;54.692;9.332;2023-01-19T07:56:49;10.07;;;8.98;;
64597;SDS011;51004;54.692;9.332;2023-01-19T07:59:17;12.10;;;9.65;;
64597;SDS011;51004;54.692;9.332;2023-01-19T08:01:43;17.25;;;10.40;;
64597;SDS011;51004;54.692;9.332;2023-01-19T08:04:09;11.88;;;9.75;;
64597;SDS011;51004;54.692;9.332;2023-01-19T08:06:36;13.32;;;9.52;;
64597;SDS011;51004;54.692;9.332;2023-01-19T08:09:03;9.93;;;8.23;;
64597;SDS011;51004;54.692;9.332;2023-01-19T08:11:30;13.00;;;8.85;;
64597;SDS011;51004;54.692;9.332;2023-01-19T08:13:56;13.23;;;8.88;;
64597;SDS011;51004;54.692;9.332;2023-01-19T08:16:22;14.25;;;8.82;;
64597;SDS011;51004;54.692;9.332;2023-01-19T08:18:48;16.10;;;8.60;;
64597;SDS011;51004;54.692;9.332;2023-01-19T08:21:14;15.48;;;9.52;;
64597;SDS011;51004;54.692;9.332;2023-01-19T08:23:40;15.05;;;9.65;;
64597;SDS011;51004;54.692;9.332;2023-01-19T08:26:16;13.13;;;9.57;;
64597;SDS011;51004;54.692;9.332;2023-01-19T08:28:42;15.30;;;9.98;;
64597;SDS011;51004;54.692;9.332;2023-01-19T08:31:08;14.85;;;9.55;;
64597;SDS011;51004;54.692;9.332;2023-01-19T08:33:34;13.30;;;9.05;;
64597;SDS011;51004;54.692;9.332;2023-01-19T08:36:00;14.38;;;8.40;;
64597;SDS011;51004;54.692;9.332;2023-01-19T08:38:26;16.60;;;10.35;;
64597;SDS011;51004;54.692;9.332;2023-01-19T08:40:52;13.43;;;9.10;;
64597;SDS011;51004;54.692;9.332;2023-01-19T08:43:18;11.82;;;8.23;;
64597;SDS011;51004;54.692;9.332;2023-01-19T08:45:44;14.73;;;8.85;;
64597;SDS011;51004;54.692;9.332;2023-01-19T08:48:12;15.68;;;9.43;;
64597;SDS011;51004;54.692;9.332;2023-01-19T08:50:37;13.15;;;8.32;;
64597;SDS011;51004;54.692;9.332;2023-01-19T08:53:04;16.27;;;9.13;;
64597;SDS011;51004;54.692;9.332;2023-01-19T08:55:34;18.23;;;10.88;;
64597;SDS011;51004;54.692;9.332;2023-01-19T08:58:00;17.67;;;10.55;;
64597;SDS011;51004;54.692;9.332;2023-01-19T09:00:28;17.98;;;11.07;;
64597;SDS011;51004;54.692;9.332;2023-01-19T09:02:55;16.02;;;10.25;;
64597;SDS011;51004;54.692;9.332;2023-01-19T09:05:21;16.65;;;11.00;;
64597;SDS011;51004;54.692;9.332;2023-01-19T09:07:47;17.60;;;11.25;;
64597;SDS011;51004;54.692;9.332;2023-01-19T09:10:13;16.15;;;11.45;;
64597;SDS011;51004;54.692;9.332;2023-01-19T09:12:40;20.30;;;11.27;;
64597;SDS011;51004;54.692;9.332;2023-01-19T09:15:06;22.58;;;11.75;;
64597;SDS011;51004;54.692;9.332;2023-01-19T09:17:32;18.00;;;11.60;;
64597;SDS011;51004;54.692;9.332;2023-01-19T09:19:58;18.67;;;11.63;;
64597;SDS011;51004;54.692;9.332;2023-01-19T09:22:24;16.45;;;10.90;;
64597;SDS011;51004;54.692;9.332;2023-01-19T09:24:50;19.77;;;11.40;;
64597;SDS011;51004;54.692;9.332;2023-01-19T09:27:16;14.85;;;12.13;;
64597;SDS011;51004;54.692;9.332;2023-01-19T09:29:42;17.38;;;10.90;;
64597;SDS011;51004;54.692;9.332;2023-01-19T09:34:42;17.33;;;11.45;;
64597;SDS011;51004;54.692;9.332;2023-01-19T09:37:08;17.90;;;11.65;;
64597;SDS011;51004;54.692;9.332;2023-01-19T09:39:34;19.17;;;11.95;;
64597;SDS011;51004;54.692;9.332;2023-01-19T09:42:02;21.92;;;13.95;;
64597;SDS011;51004;54.692;9.332;2023-01-19T09:44:31;24.30;;;14.93;;
64597;SDS011;51004;54.692;9.332;2023-01-19T09:46:57;18.05;;;12.40;;
64597;SDS011;51004;54.692;9.332;2023-01-19T09:49:26;21.45;;;15.35;;
64597;SDS011;51004;54.692;9.332;2023-01-19T09:51:53;19.10;;;14.60;;
64597;SDS011;51004;54.692;9.332;2023-01-19T09:54:20;22.05;;;13.70;;
64597;SDS011;51004;54.692;9.332;2023-01-19T09:56:48;21.48;;;13.75;;
64597;SDS011;51004;54.692;9.332;2023-01-19T09:59:22;18.67;;;13.50;;
64597;SDS011;51004;54.692;9.332;2023-01-19T10:01:52;19.80;;;13.23;;
64597;SDS011;51004;54.692;9.332;2023-01-19T10:06:59;16.83;;;13.25;;
64597;SDS011;51004;54.692;9.332;2023-01-19T10:09:30;19.45;;;13.57;;
64597;SDS011;51004;54.692;9.332;2023-01-19T10:12:09;21.38;;;13.05;;
64597;SDS011;51004;54.692;9.332;2023-01-19T10:19:44;18.20;;;12.82;;
64597;SDS011;51004;54.692;9.332;2023-01-19T10:22:22;21.48;;;12.57;;
64597;SDS011;51004;54.692;9.332;2023-01-19T10:24:50;18.17;;;12.07;;
64597;SDS011;51004;54.692;9.332;2023-01-19T10:27:19;17.77;;;10.93;;
64597;SDS011;51004;54.692;9.332;2023-01-19T10:29:45;15.45;;;10.93;;
64597;SDS011;51004;54.692;9.332;2023-01-19T10:32:21;12.85;;;8.75;;
64597;SDS011;51004;54.692;9.332;2023-01-19T10:34:48;14.98;;;8.93;;
64597;SDS011;51004;54.692;9.332;2023-01-19T10:39:53;19.25;;;8.68;;
64597;SDS011;51004;54.692;9.332;2023-01-19T10:42:20;12.30;;;7.55;;
64597;SDS011;51004;54.692;9.332;2023-01-19T10:44:46;15.38;;;7.65;;
64597;SDS011;51004;54.692;9.332;2023-01-19T10:47:17;10.65;;;6.85;;
64597;SDS011;51004;54.692;9.332;2023-01-19T10:49:44;10.30;;;6.22;;
64597;SDS011;51004;54.692;9.332;2023-01-19T10:52:23;12.70;;;6.75;;
64597;SDS011;51004;54.692;9.332;2023-01-19T10:54:51;14.55;;;4.70;;
64597;SDS011;51004;54.692;9.332;2023-01-19T10:57:24;15.48;;;4.30;;
64597;SDS011;51004;54.692;9.332;2023-01-19T10:59:52;14.70;;;3.78;;
64597;SDS011;51004;54.692;9.332;2023-01-19T11:04:44;13.40;;;2.75;;
64597;SDS011;51004;54.692;9.332;2023-01-19T11:09:48;8.93;;;2.10;;
64597;SDS011;51004;54.692;9.332;2023-01-19T11:12:23;10.45;;;2.30;;
64597;SDS011;51004;54.692;9.332;2023-01-19T11:14:49;10.60;;;2.30;;
64597;SDS011;51004;54.692;9.332;2023-01-19T11:17:20;12.52;;;2.67;;
64597;SDS011;51004;54.692;9.332;2023-01-19T11:19:57;11.32;;;3.50;;
64597;SDS011;51004;54.692;9.332;2023-01-19T11:22:25;6.80;;;2.13;;
64597;SDS011;51004;54.692;9.332;2023-01-19T11:24:51;8.40;;;2.15;;
64597;SDS011;51004;54.692;9.332;2023-01-19T11:27:20;10.27;;;2.25;;
64597;SDS011;51004;54.692;9.332;2023-01-19T11:29:47;10.10;;;3.00;;
64597;SDS011;51004;54.692;9.332;2023-01-19T11:32:21;12.77;;;2.90;;
64597;SDS011;51004;54.692;9.332;2023-01-19T11:34:47;9.57;;;3.28;;
64597;SDS011;51004;54.692;9.332;2023-01-19T11:39:46;8.70;;;3.40;;
64597;SDS011;51004;54.692;9.332;2023-01-19T11:42:13;8.20;;;2.95;;
64597;SDS011;51004;54.692;9.332;2023-01-19T11:44:43;9.45;;;2.95;;
64597;SDS011;51004;54.692;9.332;2023-01-19T11:47:12;11.75;;;2.90;;
64597;SDS011;51004;54.692;9.332;2023-01-19T11:49:51;7.07;;;2.72;;
64597;SDS011;51004;54.692;9.332;2023-01-19T11:55:09;7.60;;;2.53;;
64597;SDS011;51004;54.692;9.332;2023-01-19T11:57:41;6.22;;;2.03;;
64597;SDS011;51004;54.692;9.332;2023-01-19T12:00:16;8.07;;;2.28;;
64597;SDS011;51004;54.692;9.332;2023-01-19T12:02:44;4.07;;;1.63;;
64597;SDS011;51004;54.692;9.332;2023-01-19T12:05:14;7.05;;;2.08;;
64597;SDS011;51004;54.692;9.332;2023-01-19T12:07:40;12.27;;;2.53;;
64597;SDS011;51004;54.692;9.332;2023-01-19T12:10:42;9.32;;;1.60;;
64597;SDS011;51004;54.692;9.332;2023-01-19T12:13:01;8.30;;;2.00;;
64597;SDS011;51004;54.692;9.332;2023-01-19T12:15:35;8.40;;;1.50;;
64597;SDS011;51004;54.692;9.332;2023-01-19T12:18:02;9.85;;;1.75;;
64597;SDS011;51004;54.692;9.332;2023-01-19T12:20:31;7.68;;;2.00;;
64597;SDS011;51004;54.692;9.332;2023-01-19T12:25:44;9.52;;;2.30;;
64597;SDS011;51004;54.692;9.332;2023-01-19T12:28:13;9.63;;;1.55;;
64597;SDS011;51004;54.692;9.332;2023-01-19T12:30:40;6.20;;;1.65;;
64597;SDS011;51004;54.692;9.332;2023-01-19T12:33:33;4.45;;;1.67;;
64597;SDS011;51004;54.692;9.332;2023-01-19T12:36:11;5.35;;;1.83;;
64597;SDS011;51004;54.692;9.332;2023-01-19T12:38:47;5.95;;;1.95;;
64597;SDS011;51004;54.692;9.332;2023-01-19T12:41:20;8.55;;;2.30;;
64597;SDS011;51004;54.692;9.332;2023-01-19T12:43:47;5.93;;;1.38;;
64597;SDS011;51004;54.692;9.332;2023-01-19T12:46:32;7.78;;;1.00;;
64597;SDS011;51004;54.692;9.332;2023-01-19T12:49:05;3.78;;;1.00;;
64597;SDS011;51004;54.692;9.332;2023-01-19T12:51:31;4.28;;;1.00;;
64597;SDS011;51004;54.692;9.332;2023-01-19T12:53:57;4.15;;;1.38;;
64597;SDS011;51004;54.692;9.332;2023-01-19T12:56:31;8.60;;;1.30;;
64597;SDS011;51004;54.692;9.332;2023-01-19T12:58:58;7.45;;;0.93;;
64597;SDS011;51004;54.692;9.332;2023-01-19T13:01:24;5.40;;;1.10;;
64597;SDS011;51004;54.692;9.332;2023-01-19T13:04:28;7.25;;;1.40;;
64597;SDS011;51004;54.692;9.332;2023-01-19T13:12:09;1.60;;;0.60;;
64597;SDS011;51004;54.692;9.332;2023-01-19T13:14:35;2.05;;;1.10;;
64597;SDS011;51004;54.692;9.332;2023-01-19T13:17:02;6.10;;;1.00;;
64597;SDS011;51004;54.692;9.332;2023-01-19T13:19:31;6.10;;;1.33;;
64597;SDS011;51004;54.692;9.332;2023-01-19T13:21:59;3.10;;;1.17;;
64597;SDS011;51004;54.692;9.332;2023-01-19T13:25:07;4.22;;;1.50;;
64597;SDS011;51004;54.692;9.332;2023-01-19T13:27:33;4.43;;;2.65;;
64597;SDS011;51004;54.692;9.332;2023-01-19T13:29:59;3.42;;;0.68;;
64597;SDS011;51004;54.692;9.332;2023-01-19T13:32:26;2.33;;;0.70;;
64597;SDS011;51004;54.692;9.332;2023-01-19T13:34:53;3.15;;;0.80;;
64597;SDS011;51004;54.692;9.332;2023-01-19T13:37:34;2.13;;;0.60;;
64597;SDS011;51004;54.692;9.332;2023-01-19T13:40:02;2.92;;;0.60;;
64597;SDS011;51004;54.692;9.332;2023-01-19T13:42:29;4.75;;;0.70;;
64597;SDS011;51004;54.692;9.332;2023-01-19T13:44:58;3.95;;;0.90;;
64597;SDS011;51004;54.692;9.332;2023-01-19T13:47:28;1.38;;;0.60;;
64597;SDS011;51004;54.692;9.332;2023-01-19T13:49:56;5.38;;;1.10;;
64597;SDS011;51004;54.692;9.332;2023-01-19T13:52:28;7.38;;;1.92;;
64597;SDS011;51004;54.692;9.332;2023-01-19T13:54:56;12.43;;;2.53;;
64597;SDS011;51004;54.692;9.332;2023-01-19T13:57:26;8.77;;;2.50;;
64597;SDS011;51004;54.692;9.332;2023-01-19T13:59:59;10.80;;;4.15;;
64597;SDS011;51004;54.692;9.332;2023-01-19T14:02:25;6.72;;;2.00;;
64597;SDS011;51004;54.692;9.332;2023-01-19T14:04:51;8.27;;;2.30;;
64597;SDS011;51004;54.692;9.332;2023-01-19T14:07:18;8.93;;;4.63;;
64597;SDS011;51004;54.692;9.332;2023-01-19T14:10:06;5.30;;;1.20;;
64597;SDS011;51004;54.692;9.332;2023-01-19T14:12:35;5.82;;;1.83;;
64597;SDS011;51004;54.692;9.332;2023-01-19T14:15:01;3.53;;;1.50;;
64597;SDS011;51004;54.692;9.332;2023-01-19T14:17:29;8.82;;;1.70;;
64597;SDS011;51004;54.692;9.332;2023-01-19T14:19:56;4.85;;;1.38;;
64597;SDS011;51004;54.692;9.332;2023-01-19T14:22:42;3.00;;;0.95;;
64597;SDS011;51004;54.692;9.332;2023-01-19T14:30:38;5.63;;;1.25;;
64597;SDS011;51004;54.692;9.332;2023-01-19T14:33:04;3.45;;;0.80;;
64597;SDS011;51004;54.692;9.332;2023-01-19T14:35:30;4.90;;;0.80;;
64597;SDS011;51004;54.692;9.332;2023-01-19T14:37:56;4.88;;;0.90;;
64597;SDS011;51004;54.692;9.332;2023-01-19T14:40:22;4.70;;;0.82;;
64597;SDS011;51004;54.692;9.332;2023-01-19T14:42:52;5.03;;;0.98;;
64597;SDS011;51004;54.692;9.332;2023-01-19T14:45:20;5.90;;;0.93;;
64597;SDS011;51004;54.692;9.332;2023-01-19T14:48:00;5.45;;;0.90;;
64597;SDS011;51004;54.692;9.332;2023-01-19T14:50:28;4.97;;;0.80;;
64597;SDS011;51004;54.692;9.332;2023-01-19T14:53:02;9.65;;;1.10;;
64597;SDS011;51004;54.692;9.332;2023-01-19T14:57:54;9.50;;;2.75;;
64597;SDS011;51004;54.692;9.332;2023-01-19T15:00:20;9.90;;;3.35;;
64597;SDS011;51004;54.692;9.332;2023-01-19T15:02:46;13.88;;;5.78;;
64597;SDS011;51004;54.692;9.332;2023-01-19T15:05:12;28.65;;;9.43;;
64597;SDS011;51004;54.692;9.332;2023-01-19T15:07:39;21.85;;;6.93;;
64597;SDS011;51004;54.692;9.332;2023-01-19T15:10:12;20.27;;;8.13;;
64597;SDS011;51004;54.692;9.332;2023-01-19T15:12:40;13.32;;;3.92;;
64597;SDS011;51004;54.692;9.332;2023-01-19T15:15:11;14.57;;;5.95;;
64597;SDS011;51004;54.692;9.332;2023-01-19T15:17:37;17.23;;;6.00;;
64597;SDS011;51004;54.692;9.332;2023-01-19T15:20:05;18.23;;;7.28;;
64597;SDS011;51004;54.692;9.332;2023-01-19T15:22:31;13.20;;;5.32;;
64597;SDS011;51004;54.692;9.332;2023-01-19T15:24:57;18.45;;;6.88;;
64597;SDS011;51004;54.692;9.332;2023-01-19T15:27:25;15.52;;;5.97;;
64597;SDS011;51004;54.692;9.332;2023-01-19T15:29:51;16.52;;;6.57;;
64597;SDS011;51004;54.692;9.332;2023-01-19T15:32:18;15.35;;;6.32;;